createdAt,value
2019-02-18T00:01:43.946Z,68.54
2019-02-18T00:04:12.751Z,68.53
2019-02-18T00:06:41.524Z,68.00
2019-02-18T00:09:10.895Z,68.51
2019-02-18T00:11:40.234Z,68.74
2019-02-18T00:14:09.026Z,69.12
2019-02-18T00:16:37.814Z,68.83
2019-02-18T00:19:07.415Z,68.66
2019-02-18T00:21:36.605Z,68.82
2019-02-18T00:24:05.540Z,68.62
2019-02-18T00:26:34.367Z,69.00
2019-02-18T00:29:03.195Z,69.63
2019-02-18T00:31:31.985Z,69.15
2019-02-18T00:34:00.858Z,69.46
2019-02-18T00:36:30.222Z,69.49
2019-02-18T00:38:59.396Z,70.47
2019-02-18T00:41:30.073Z,69.80
2019-02-18T00:43:58.927Z,70.31
2019-02-18T00:46:27.755Z,69.61
2019-02-18T00:48:56.552Z,69.88
2019-02-18T00:51:26.519Z,70.62
2019-02-18T00:53:56.525Z,71.37
2019-02-18T00:56:25.325Z,71.18
2019-02-18T00:58:54.623Z,71.08
2019-02-18T01:01:23.433Z,70.53
2019-02-18T01:03:53.238Z,70.79
2019-02-18T01:06:22.040Z,70.32
2019-02-18T01:08:50.855Z,70.41
2019-02-18T01:11:23.175Z,70.73
2019-02-18T01:13:52.001Z,70.52
2019-02-18T01:16:21.792Z,70.54
2019-02-18T01:18:50.584Z,70.85
2019-02-18T01:21:19.985Z,71.23
2019-02-18T01:23:48.768Z,71.36
2019-02-18T01:26:17.548Z,71.50
2019-02-18T01:28:46.353Z,71.86
2019-02-18T01:31:15.334Z,72.28
2019-02-18T01:33:44.133Z,71.61
2019-02-18T01:36:14.235Z,72.01
2019-02-18T01:38:43.120Z,71.79
2019-02-18T01:41:11.899Z,72.02
2019-02-18T01:43:40.742Z,72.94
2019-02-18T01:46:09.638Z,72.78
2019-02-18T01:48:39.587Z,72.45
2019-02-18T01:51:08.390Z,72.44
2019-02-18T01:53:37.270Z,72.63
2019-02-18T01:56:06.075Z,72.92
2019-02-18T01:58:34.863Z,73.04
2019-02-18T02:01:03.748Z,72.83
2019-02-18T02:03:32.617Z,73.62
2019-02-18T02:06:02.349Z,73.71
2019-02-18T02:08:31.130Z,73.67
2019-02-18T02:10:59.974Z,73.49
2019-02-18T02:13:30.703Z,73.50
2019-02-18T02:16:00.699Z,73.60
2019-02-18T02:18:29.498Z,73.86
2019-02-18T02:20:58.969Z,73.56
2019-02-18T02:23:28.218Z,73.35
2019-02-18T02:25:58.103Z,73.89
2019-02-18T02:28:26.942Z,74.92
2019-02-18T02:30:56.907Z,74.70
2019-02-18T02:33:26.367Z,74.68
2019-02-18T02:35:55.136Z,74.63
2019-02-18T02:38:24.607Z,74.07
2019-02-18T02:40:53.475Z,73.86
2019-02-18T02:43:22.548Z,74.11
2019-02-18T02:45:51.402Z,75.39
2019-02-18T02:48:20.183Z,74.92
2019-02-18T02:50:49.029Z,74.87
2019-02-18T02:53:17.839Z,74.55
2019-02-18T02:55:46.687Z,74.36
2019-02-18T02:58:15.524Z,75.59
2019-02-18T03:00:44.860Z,75.55
2019-02-18T03:03:13.665Z,75.73
2019-02-18T03:05:42.564Z,75.23
2019-02-18T03:08:20.041Z,75.37
2019-02-18T03:10:41.385Z,75.56
2019-02-18T03:13:10.942Z,74.92
2019-02-18T03:15:39.768Z,75.96
2019-02-18T03:18:10.127Z,75.72
2019-02-18T03:20:39.931Z,76.31
2019-02-18T03:23:08.807Z,75.07
2019-02-18T03:25:37.616Z,75.63
2019-02-18T03:28:12.048Z,75.97
2019-02-18T03:30:50.109Z,75.72
2019-02-18T03:33:22.970Z,75.16
2019-02-18T03:35:52.433Z,75.67
2019-02-18T03:38:31.194Z,75.14
2019-02-18T03:41:02.810Z,75.92
2019-02-18T03:43:22.138Z,75.15
2019-02-18T03:45:51.068Z,75.13
2019-02-18T03:48:19.884Z,76.16
2019-02-18T03:50:48.704Z,75.86
2019-02-18T03:53:17.825Z,76.72
2019-02-18T03:55:47.105Z,76.92
2019-02-18T03:58:16.740Z,76.52
2019-02-18T04:00:45.621Z,76.70
2019-02-18T04:03:15.939Z,76.70
2019-02-18T04:05:45.624Z,76.18
2019-02-18T04:08:14.417Z,76.25
2019-02-18T04:10:44.867Z,76.18
2019-02-18T04:13:14.352Z,76.62
2019-02-18T04:15:43.172Z,77.14
2019-02-18T04:18:13.629Z,76.93
2019-02-18T04:20:42.444Z,76.69
2019-02-18T04:23:11.235Z,76.96
2019-02-18T04:25:41.075Z,76.58
2019-02-18T04:28:09.978Z,76.44
2019-02-18T04:30:38.751Z,76.71
2019-02-18T04:33:07.564Z,77.17
2019-02-18T04:35:37.329Z,78.06
2019-02-18T04:38:06.262Z,77.04
2019-02-18T04:40:35.077Z,76.58
2019-02-18T04:43:04.956Z,77.61
2019-02-18T04:45:33.765Z,77.64
2019-02-18T04:48:02.736Z,77.74
2019-02-18T04:50:32.316Z,77.15
2019-02-18T04:53:03.445Z,77.04
2019-02-18T04:55:32.411Z,76.99
2019-02-18T04:58:01.167Z,77.10
2019-02-18T05:00:31.174Z,77.67
2019-02-18T05:03:01.897Z,77.39
2019-02-18T05:05:31.335Z,77.63
2019-02-18T05:08:00.730Z,78.06
2019-02-18T05:10:30.106Z,77.40
2019-02-18T05:12:58.916Z,77.14
2019-02-18T05:15:28.700Z,77.62
2019-02-18T05:17:58.116Z,76.92
2019-02-18T05:20:28.634Z,77.85
2019-02-18T05:22:57.527Z,77.61
2019-02-18T05:25:27.522Z,78.70
2019-02-18T05:27:56.341Z,78.54
2019-02-18T05:30:25.950Z,78.69
2019-02-18T05:32:55.587Z,77.89
2019-02-18T05:35:24.358Z,78.28
2019-02-18T05:37:54.028Z,77.33
2019-02-18T05:40:22.857Z,77.35
2019-02-18T05:42:51.728Z,78.47
2019-02-18T05:45:20.520Z,78.11
2019-02-18T05:47:49.967Z,78.36
2019-02-18T05:50:19.626Z,77.76
2019-02-18T05:52:48.409Z,78.02
2019-02-18T05:55:17.947Z,78.02
2019-02-18T05:57:47.884Z,78.74
2019-02-18T06:00:16.856Z,78.74
2019-02-18T06:02:45.654Z,77.77
2019-02-18T06:05:15.301Z,78.46
2019-02-18T06:07:44.704Z,78.72
2019-02-18T06:10:14.231Z,78.93
2019-02-18T06:12:42.969Z,78.44
2019-02-18T06:15:12.571Z,78.35
2019-02-18T06:17:42.216Z,78.46
2019-02-18T06:20:11.030Z,77.72
2019-02-18T06:22:39.856Z,77.91
2019-02-18T06:25:08.668Z,78.24
2019-02-18T06:27:37.691Z,77.79
2019-02-18T06:30:08.170Z,78.56
2019-02-18T06:32:36.960Z,79.65
2019-02-18T06:35:05.910Z,79.06
2019-02-18T06:37:34.705Z,79.22
2019-02-18T06:40:03.520Z,79.11
2019-02-18T06:42:32.383Z,79.21
2019-02-18T06:45:12.047Z,78.77
2019-02-18T06:47:39.483Z,79.86
2019-02-18T06:50:08.915Z,79.67
2019-02-18T06:52:38.005Z,79.34
2019-02-18T06:55:07.871Z,79.04
2019-02-18T06:57:43.833Z,79.28
2019-02-18T07:00:22.617Z,79.44
2019-02-18T07:02:56.190Z,79.04
2019-02-18T07:05:36.185Z,79.84
2019-02-18T07:09:07.967Z,79.81
2019-02-18T07:11:41.523Z,78.89
2019-02-18T07:14:11.175Z,79.49
2019-02-18T07:16:40.326Z,79.97
2019-02-18T07:19:09.144Z,78.86
2019-02-18T07:21:38.587Z,78.61
2019-02-18T07:24:07.441Z,78.46
2019-02-18T07:26:36.402Z,78.53
2019-02-18T07:29:05.838Z,79.48
2019-02-18T07:31:34.952Z,78.69
2019-02-18T07:34:06.098Z,78.80
2019-02-18T07:36:35.227Z,79.14
2019-02-18T07:39:04.335Z,78.34
2019-02-18T07:41:34.810Z,78.85
2019-02-18T07:44:05.904Z,78.59
2019-02-18T07:46:36.655Z,78.74
2019-02-18T07:49:05.478Z,78.32
2019-02-18T07:51:34.256Z,79.05
2019-02-18T07:54:03.827Z,78.44
2019-02-18T07:56:33.751Z,78.50
2019-02-18T07:59:02.557Z,78.60
2019-02-18T08:01:32.035Z,77.86
2019-02-18T08:04:00.874Z,77.46
2019-02-18T08:06:30.957Z,77.96
2019-02-18T08:09:00.459Z,77.69
2019-02-18T08:11:29.399Z,77.33
2019-02-18T08:13:58.178Z,77.35
2019-02-18T08:16:26.979Z,77.91
2019-02-18T08:18:55.852Z,77.71
2019-02-18T08:21:25.734Z,76.91
2019-02-18T08:23:59.994Z,76.28
2019-02-18T08:26:24.178Z,76.98
2019-02-18T08:28:52.984Z,76.12
2019-02-18T08:31:22.056Z,75.46
2019-02-18T08:33:50.848Z,75.26
2019-02-18T08:36:19.654Z,74.39
2019-02-18T08:38:49.087Z,73.68
2019-02-18T08:41:18.606Z,74.15
2019-02-18T08:43:48.440Z,73.41
2019-02-18T08:46:17.231Z,73.45
2019-02-18T08:48:46.038Z,73.22
2019-02-18T08:51:15.520Z,72.66
2019-02-18T08:53:44.328Z,71.74
2019-02-18T08:56:13.734Z,71.47
2019-02-18T08:58:42.811Z,70.89
2019-02-18T09:01:11.703Z,70.47
2019-02-18T09:03:40.552Z,70.21
2019-02-18T09:06:09.397Z,69.69
2019-02-18T09:08:38.201Z,68.38
2019-02-18T09:11:07.023Z,68.20
2019-02-18T09:13:35.812Z,67.91
2019-02-18T09:16:04.603Z,66.91
2019-02-18T09:18:33.494Z,66.27
2019-02-18T09:21:03.515Z,65.50
2019-02-18T09:23:40.053Z,64.73
2019-02-18T09:26:09.415Z,64.27
2019-02-18T09:28:38.976Z,63.87
2019-02-18T09:31:07.748Z,62.64
2019-02-18T09:33:36.912Z,62.73
2019-02-18T09:36:05.938Z,62.26
2019-02-18T09:38:35.571Z,61.06
2019-02-18T09:41:04.652Z,61.08
2019-02-18T09:43:33.471Z,60.74
2019-02-18T09:46:03.236Z,60.03
2019-02-18T09:48:32.758Z,59.54
2019-02-18T09:51:02.175Z,59.70
2019-02-18T09:53:30.982Z,58.77
2019-02-18T09:55:59.816Z,58.22
2019-02-18T09:58:28.625Z,57.31
2019-02-18T10:00:57.637Z,57.25
2019-02-18T10:03:31.945Z,55.72
2019-02-18T10:05:55.844Z,54.49
2019-02-18T10:08:24.662Z,54.66
2019-02-18T10:10:56.130Z,54.87
2019-02-18T10:13:22.364Z,54.20
2019-02-18T10:15:51.275Z,53.52
2019-02-18T10:18:20.085Z,53.89
2019-02-18T10:20:49.247Z,53.64
2019-02-18T10:23:18.043Z,53.40
2019-02-18T10:25:47.699Z,52.30
2019-02-18T10:28:18.294Z,51.77
2019-02-18T10:30:47.978Z,51.57
2019-02-18T10:33:16.857Z,50.91
2019-02-18T10:35:46.167Z,50.02
2019-02-18T10:38:15.127Z,50.01
2019-02-18T10:40:45.336Z,49.85
2019-02-18T10:43:14.295Z,49.84
2019-02-18T10:45:43.617Z,48.95
2019-02-18T10:48:12.450Z,48.02
2019-02-18T10:50:42.974Z,48.43
2019-02-18T10:53:12.234Z,47.83
2019-02-18T10:55:41.010Z,46.98
2019-02-18T10:58:10.469Z,45.64
2019-02-18T11:00:39.278Z,46.20
2019-02-18T11:03:08.777Z,46.43
2019-02-18T11:05:37.659Z,47.12
2019-02-18T11:08:06.867Z,46.60
2019-02-18T11:10:37.278Z,46.77
2019-02-18T11:13:06.123Z,46.99
2019-02-18T11:15:34.931Z,46.94
2019-02-18T11:18:03.751Z,46.31
2019-02-18T11:20:32.787Z,46.12
2019-02-18T11:23:01.671Z,44.73
2019-02-18T11:25:30.463Z,44.32
2019-02-18T11:27:59.809Z,45.36
2019-02-18T11:30:28.603Z,45.33
2019-02-18T11:32:57.519Z,44.80
2019-02-18T11:35:26.346Z,43.85
2019-02-18T11:37:56.068Z,44.37
2019-02-18T11:40:25.470Z,43.82
2019-02-18T11:42:54.315Z,44.06
2019-02-18T11:45:23.106Z,44.00
2019-02-18T11:47:52.759Z,43.20
2019-02-18T11:50:21.975Z,44.09
2019-02-18T11:52:51.310Z,43.65
2019-02-18T11:55:20.125Z,43.54
2019-02-18T11:57:48.954Z,43.18
2019-02-18T12:00:17.739Z,42.05
2019-02-18T12:02:46.559Z,42.31
2019-02-18T12:05:15.379Z,42.49
2019-02-18T12:07:44.167Z,42.41
2019-02-18T12:10:13.009Z,42.46
2019-02-18T12:12:41.817Z,41.69
2019-02-18T12:15:10.960Z,41.85
2019-02-18T12:17:40.480Z,40.92
2019-02-18T12:20:11.171Z,41.63
2019-02-18T12:22:40.721Z,42.16
2019-02-18T12:25:09.570Z,42.36
2019-02-18T12:27:38.376Z,41.53
2019-02-18T12:30:11.850Z,40.90
2019-02-18T12:32:40.661Z,41.13
2019-02-18T12:35:09.815Z,41.46
2019-02-18T12:37:42.342Z,41.79
2019-02-18T12:40:11.150Z,41.43
2019-02-18T12:43:06.888Z,41.66
2019-02-18T12:45:35.743Z,40.81
2019-02-18T12:51:36.974Z,41.54
2019-02-18T12:54:05.952Z,41.35
2019-02-18T12:56:36.068Z,41.75
2019-02-18T12:59:05.087Z,41.64
2019-02-18T13:01:33.959Z,40.96
2019-02-18T13:04:02.767Z,41.03
2019-02-18T13:06:31.610Z,41.01
2019-02-18T13:09:00.604Z,40.62
2019-02-18T13:11:29.471Z,40.72
2019-02-18T13:13:59.747Z,40.16
2019-02-18T13:16:28.552Z,41.24
2019-02-18T13:18:57.364Z,39.22
2019-02-18T13:21:26.172Z,40.06
2019-02-18T13:23:55.040Z,40.18
2019-02-18T13:26:23.856Z,39.14
2019-02-18T13:28:52.723Z,40.74
2019-02-18T13:31:25.243Z,40.22
2019-02-18T13:33:54.695Z,40.31
2019-02-18T13:36:24.329Z,39.73
2019-02-18T13:38:55.045Z,40.57
2019-02-18T13:41:26.119Z,40.28
2019-02-18T13:43:54.975Z,40.38
2019-02-18T13:46:23.799Z,40.84
2019-02-18T13:48:56.907Z,40.75
2019-02-18T13:51:25.693Z,40.82
2019-02-18T13:53:54.653Z,40.34
2019-02-18T13:56:24.089Z,38.81
2019-02-18T13:58:54.623Z,39.51
2019-02-18T14:01:23.464Z,40.43
2019-02-18T14:03:52.919Z,40.87
2019-02-18T14:06:22.187Z,40.52
2019-02-18T14:08:50.988Z,40.92
2019-02-18T14:11:19.832Z,40.63
2019-02-18T14:13:49.939Z,40.68
2019-02-18T14:16:19.957Z,40.83
2019-02-18T14:18:48.800Z,40.81
2019-02-18T14:21:17.658Z,40.57
2019-02-18T14:23:53.138Z,41.05
2019-02-18T14:26:23.096Z,40.34
2019-02-18T14:28:54.935Z,41.10
2019-02-18T14:31:23.782Z,41.14
2019-02-18T14:33:57.414Z,41.36
2019-02-18T14:36:27.710Z,41.23
2019-02-18T14:38:56.607Z,41.22
2019-02-18T14:41:26.109Z,41.90
2019-02-18T14:43:56.203Z,41.10
2019-02-18T14:46:26.106Z,41.40
2019-02-18T14:48:55.828Z,42.15
2019-02-18T14:51:26.789Z,41.68
2019-02-18T14:53:55.600Z,42.18
2019-02-18T14:56:25.054Z,42.33
2019-02-18T14:58:55.836Z,41.42
2019-02-18T15:01:25.786Z,42.21
2019-02-18T15:03:55.355Z,42.25
2019-02-18T15:06:25.375Z,42.94
2019-02-18T15:08:54.539Z,42.74
2019-02-18T15:11:24.643Z,42.71
2019-02-18T15:13:54.652Z,43.13
2019-02-18T15:16:23.599Z,43.41
2019-02-18T15:18:53.352Z,43.23
2019-02-18T15:21:22.184Z,43.25
2019-02-18T15:23:51.625Z,43.89
2019-02-18T15:26:20.442Z,43.87
2019-02-18T15:28:51.695Z,44.02
2019-02-18T15:31:20.504Z,43.90
2019-02-18T15:33:50.461Z,44.03
2019-02-18T15:36:20.066Z,43.83
2019-02-18T15:38:49.466Z,43.85
2019-02-18T15:41:18.263Z,44.61
2019-02-18T15:43:47.722Z,44.48
2019-02-18T15:46:16.576Z,44.98
2019-02-18T15:48:45.398Z,44.89
2019-02-18T15:51:14.309Z,45.15
2019-02-18T15:53:44.799Z,45.26
2019-02-18T15:56:14.856Z,45.77
2019-02-18T15:58:43.635Z,45.77
2019-02-18T16:01:12.505Z,45.67
2019-02-18T16:03:42.011Z,46.03
2019-02-18T16:06:12.737Z,46.22
2019-02-18T16:08:39.802Z,46.27
2019-02-18T16:11:09.694Z,46.80
2019-02-18T16:13:39.972Z,46.69
2019-02-18T16:16:08.781Z,46.81
2019-02-18T16:18:37.636Z,47.99
2019-02-18T16:21:08.331Z,47.78
2019-02-18T16:23:37.120Z,47.74
2019-02-18T16:26:06.011Z,48.10
2019-02-18T16:28:34.811Z,48.27
2019-02-18T16:31:04.326Z,48.12
2019-02-18T16:33:33.787Z,48.98
2019-02-18T16:36:03.286Z,48.72
2019-02-18T16:38:33.099Z,48.94
2019-02-18T16:41:01.991Z,49.81
2019-02-18T16:43:31.206Z,49.78
2019-02-18T16:46:01.142Z,50.47
2019-02-18T16:48:31.143Z,50.58
2019-02-18T16:50:59.979Z,50.50
2019-02-18T16:53:28.816Z,50.83
2019-02-18T16:56:01.951Z,51.11
2019-02-18T16:58:30.799Z,51.32
2019-02-18T17:00:59.665Z,51.54
2019-02-18T17:03:28.504Z,52.10
2019-02-18T17:05:57.481Z,52.35
2019-02-18T17:08:26.298Z,52.27
2019-02-18T17:10:55.677Z,53.01
2019-02-18T17:13:26.291Z,53.37
2019-02-18T17:15:55.204Z,53.92
2019-02-18T17:18:27.303Z,53.85
2019-02-18T17:20:57.077Z,53.88
2019-02-18T17:23:26.066Z,54.49
2019-02-18T17:25:55.769Z,54.19
2019-02-18T17:28:39.235Z,54.33
2019-02-18T17:31:08.076Z,54.92
2019-02-18T17:33:36.914Z,54.59
2019-02-18T17:36:07.369Z,55.04
2019-02-18T17:38:36.449Z,56.45
2019-02-18T17:41:07.526Z,56.24
2019-02-18T17:43:37.866Z,56.74
2019-02-18T17:46:06.707Z,56.65
2019-02-18T17:48:35.545Z,56.46
2019-02-18T17:51:04.445Z,56.66
2019-02-18T17:53:33.297Z,57.02
2019-02-18T17:56:02.150Z,57.23
2019-02-18T17:58:30.943Z,57.29
2019-02-18T18:00:59.878Z,57.67
2019-02-18T18:03:28.853Z,57.99
2019-02-18T18:05:58.296Z,57.92
2019-02-18T18:08:27.932Z,58.21
2019-02-18T18:10:56.819Z,58.51
2019-02-18T18:13:26.673Z,59.80
2019-02-18T18:15:55.493Z,59.69
2019-02-18T18:18:25.051Z,60.27
2019-02-18T18:20:53.834Z,60.58
2019-02-18T18:23:23.180Z,60.83
2019-02-18T18:25:52.830Z,61.04
2019-02-18T18:28:21.634Z,61.38
2019-02-18T18:30:50.434Z,61.39
2019-02-18T18:33:20.290Z,61.47
2019-02-18T18:35:49.091Z,61.42
2019-02-18T18:38:17.887Z,61.42
2019-02-18T18:40:46.741Z,61.47
2019-02-18T18:43:16.167Z,61.66
2019-02-18T18:45:45.063Z,61.50
2019-02-18T18:48:13.947Z,61.23
2019-02-18T18:50:42.763Z,61.76
2019-02-18T18:53:11.571Z,61.83
2019-02-18T18:55:41.622Z,61.95
2019-02-18T18:58:10.533Z,62.05
2019-02-18T19:00:42.701Z,62.45
2019-02-18T19:03:12.767Z,62.89
2019-02-18T19:05:44.065Z,63.20
2019-02-18T19:08:16.430Z,64.43
2019-02-18T19:10:45.332Z,64.67
2019-02-18T19:13:14.197Z,64.01
2019-02-18T19:15:49.490Z,64.08
2019-02-18T19:18:12.929Z,63.63
2019-02-18T19:20:41.923Z,63.70
2019-02-18T19:23:11.376Z,64.28
2019-02-18T19:25:40.244Z,64.24
2019-02-18T19:28:09.043Z,64.99
2019-02-18T19:30:37.998Z,65.61
2019-02-18T19:33:06.851Z,66.33
2019-02-18T19:35:36.079Z,66.23
2019-02-18T19:38:05.069Z,66.52
2019-02-18T19:40:34.032Z,66.17
2019-02-18T19:43:03.363Z,66.45
2019-02-18T19:45:32.834Z,65.94
2019-02-18T19:48:02.395Z,66.07
2019-02-18T19:50:31.219Z,65.90
2019-02-18T19:53:00.082Z,65.89
2019-02-18T19:55:28.876Z,66.25
2019-02-18T19:57:57.975Z,66.13
2019-02-18T20:00:27.471Z,66.46
2019-02-18T20:02:56.290Z,66.03
2019-02-18T20:05:27.059Z,66.78
2019-02-18T20:07:57.139Z,66.42
2019-02-18T20:10:25.966Z,66.47
2019-02-18T20:12:54.832Z,67.00
2019-02-18T20:15:24.056Z,67.41
2019-02-18T20:17:52.927Z,67.31
2019-02-18T20:20:22.222Z,67.75
2019-02-18T20:22:51.127Z,67.87
2019-02-18T20:25:19.963Z,67.88
2019-02-18T20:27:48.800Z,68.44
2019-02-18T20:30:17.715Z,68.98
2019-02-18T20:32:47.144Z,69.38
2019-02-18T20:35:16.066Z,69.48
2019-02-18T20:37:45.917Z,70.75
2019-02-18T20:40:14.700Z,69.99
2019-02-18T20:42:45.136Z,70.14
2019-02-18T20:45:14.238Z,70.66
2019-02-18T20:47:43.742Z,70.32
2019-02-18T20:50:12.557Z,70.47
2019-02-18T20:52:41.688Z,70.65
2019-02-18T20:55:11.614Z,70.03
2019-02-18T20:57:41.118Z,70.13
2019-02-18T21:00:14.493Z,70.95
2019-02-18T21:02:43.302Z,70.20
2019-02-18T21:05:12.198Z,70.11
2019-02-18T21:07:40.982Z,70.41
2019-02-18T21:10:11.417Z,69.68
2019-02-18T21:12:40.230Z,70.16
2019-02-18T21:15:09.286Z,69.86
2019-02-18T21:17:38.148Z,70.23
2019-02-18T21:20:08.675Z,70.37
2019-02-18T21:22:38.095Z,70.63
2019-02-18T21:25:07.591Z,71.61
2019-02-18T21:27:36.446Z,72.27
2019-02-18T21:30:07.379Z,72.08
2019-02-18T21:32:36.174Z,71.82
2019-02-18T21:35:05.144Z,71.98
2019-02-18T21:37:34.032Z,71.63
2019-02-18T21:40:04.689Z,71.03
2019-02-18T21:42:34.060Z,71.29
2019-02-18T21:45:03.512Z,71.56
2019-02-18T21:47:33.057Z,71.15
2019-02-18T21:50:01.857Z,71.27
2019-02-18T21:52:31.799Z,71.60
2019-02-18T21:55:01.889Z,71.63
2019-02-18T21:57:31.988Z,71.08
2019-02-18T22:00:00.829Z,70.89
2019-02-18T22:02:30.176Z,70.70
2019-02-18T22:05:01.313Z,71.13
2019-02-18T22:07:30.106Z,70.84
2019-02-18T22:09:59.344Z,70.75
2019-02-18T22:12:28.173Z,70.81
2019-02-18T22:14:57.035Z,71.27
2019-02-18T22:17:26.272Z,70.88
2019-02-18T22:19:55.122Z,71.03
2019-02-18T22:22:24.891Z,71.73
2019-02-18T22:24:53.692Z,71.12
2019-02-18T22:27:23.238Z,71.36
2019-02-18T22:29:52.051Z,71.01
2019-02-18T22:32:27.923Z,71.10
2019-02-18T22:34:56.952Z,71.72
2019-02-18T22:37:25.978Z,71.62
2019-02-18T22:39:54.775Z,71.83
2019-02-18T22:42:24.722Z,71.52
2019-02-18T22:44:53.836Z,72.07
2019-02-18T22:47:23.333Z,71.92
2019-02-18T22:49:52.213Z,71.83
2019-02-18T22:52:22.603Z,71.73
2019-02-18T22:54:51.422Z,72.24
2019-02-18T22:57:20.933Z,71.92
2019-02-18T22:59:50.579Z,71.94
2019-02-18T23:02:19.971Z,72.44
2019-02-18T23:04:49.676Z,72.06
2019-02-18T23:07:20.170Z,72.33
2019-02-18T23:09:49.072Z,72.56
2019-02-18T23:12:18.356Z,72.82
2019-02-18T23:14:50.509Z,73.02
2019-02-18T23:17:16.685Z,72.91
2019-02-18T23:19:45.533Z,72.61
2019-02-18T23:22:14.459Z,72.34
2019-02-18T23:24:43.431Z,72.92
2019-02-18T23:27:12.242Z,73.14
2019-02-18T23:29:41.162Z,73.18
2019-02-18T23:32:10.033Z,73.56
2019-02-18T23:34:38.816Z,73.13
2019-02-18T23:37:08.473Z,73.19
2019-02-18T23:39:37.955Z,73.39
2019-02-18T23:42:08.566Z,73.26
2019-02-18T23:44:38.179Z,73.33
2019-02-18T23:47:07.643Z,72.92
2019-02-18T23:49:36.451Z,73.57
2019-02-18T23:52:05.247Z,73.04
2019-02-18T23:54:35.597Z,73.19
2019-02-18T23:57:04.992Z,74.32
2019-02-18T23:59:33.875Z,74.95
